createdAt,value
2023-03-27T00:09:35.624Z,8.40
2023-03-27T00:19:37.105Z,9.00
2023-03-27T00:29:38.573Z,7.67
2023-03-27T00:39:40.082Z,9.93
2023-03-27T00:49:42.236Z,7.70
2023-03-27T00:59:45.063Z,9.00
2023-03-27T01:09:46.599Z,8.82
2023-03-27T01:20:18.957Z,12.30
2023-03-27T01:30:29.693Z,9.07
2023-03-27T01:40:52.876Z,9.93
2023-03-27T01:50:59.509Z,6.83
2023-03-27T02:01:02.429Z,9.07
2023-03-27T02:11:04.072Z,7.00
2023-03-27T02:21:05.820Z,8.00
2023-03-27T02:31:37.865Z,6.70
2023-03-27T02:41:51.297Z,6.77
2023-03-27T02:52:20.282Z,7.25
2023-03-27T03:02:26.503Z,5.30
2023-03-27T03:12:28.080Z,7.13
2023-03-27T03:22:29.534Z,6.55
2023-03-27T03:32:31.095Z,4.00
2023-03-27T03:42:32.574Z,8.63
2023-03-27T03:52:34.138Z,7.80
2023-03-27T04:02:35.731Z,8.10
2023-03-27T04:12:37.381Z,6.47
2023-03-27T04:22:39.020Z,6.27
2023-03-27T04:32:40.713Z,7.07
2023-03-27T04:42:42.734Z,8.67
2023-03-27T04:52:44.297Z,12.43
2023-03-27T05:02:47.250Z,7.18
2023-03-27T05:12:50.866Z,4.50
2023-03-27T05:22:54.684Z,6.55
2023-03-27T05:32:56.310Z,9.03
2023-03-27T05:42:59.287Z,11.73
2023-03-27T05:53:03.941Z,8.15
2023-03-27T06:03:05.580Z,7.57
2023-03-27T06:13:09.731Z,9.80
2023-03-27T06:23:11.193Z,10.03
2023-03-27T06:33:12.814Z,18.07
2023-03-27T06:43:15.738Z,10.25
2023-03-27T06:53:26.588Z,9.93
2023-03-27T07:03:29.176Z,8.88
2023-03-27T07:13:30.773Z,13.47
2023-03-27T07:23:32.261Z,11.27
2023-03-27T07:33:33.779Z,7.40
2023-03-27T07:43:35.585Z,9.20
2023-03-27T07:53:37.104Z,8.57
2023-03-27T08:03:39.273Z,8.63
2023-03-27T08:13:40.963Z,5.47
2023-03-27T08:23:42.436Z,14.63
2023-03-27T08:33:43.892Z,6.77
2023-03-27T08:43:45.750Z,4.60
2023-03-27T08:54:19.982Z,4.63
2023-03-27T09:04:48.444Z,6.37
2023-03-27T09:14:58.472Z,5.38
2023-03-27T09:25:04.996Z,4.73
2023-03-27T09:35:06.776Z,3.40
2023-03-27T09:45:12.562Z,3.83
2023-03-27T09:55:25.140Z,6.07
2023-03-27T10:05:26.679Z,3.33
2023-03-27T10:15:37.553Z,3.20
2023-03-27T10:26:00.890Z,4.63
2023-03-27T10:36:04.213Z,3.20
2023-03-27T10:46:11.002Z,3.87
2023-03-27T10:56:33.659Z,4.35
2023-03-27T11:06:40.968Z,3.97
2023-03-27T11:16:47.503Z,5.03
2023-03-27T11:26:55.641Z,5.10
2023-03-27T11:37:38.828Z,2.40
2023-03-27T11:48:22.196Z,3.80
2023-03-27T11:58:29.951Z,2.20
2023-03-27T12:08:59.850Z,5.03
2023-03-27T12:19:21.088Z,3.30
2023-03-27T12:29:41.581Z,2.23
2023-03-27T12:39:52.392Z,2.10
2023-03-27T12:49:59.510Z,2.43
2023-03-27T13:00:02.242Z,2.47
2023-03-27T13:10:42.753Z,1.77
2023-03-27T13:20:47.334Z,1.93
2023-03-27T13:30:56.735Z,1.70
2023-03-27T13:41:36.777Z,2.97
2023-03-27T13:52:02.298Z,3.42
2023-03-27T14:02:32.071Z,3.73
2023-03-27T14:12:51.983Z,1.97
2023-03-27T14:23:01.829Z,3.08
2023-03-27T14:33:08.089Z,5.27
2023-03-27T14:43:11.709Z,2.20
2023-03-27T14:53:22.744Z,8.93
2023-03-27T15:03:27.498Z,4.03
2023-03-27T15:13:34.971Z,2.45
2023-03-27T15:24:05.965Z,2.13
2023-03-27T15:34:24.927Z,1.90
2023-03-27T15:44:31.455Z,3.87
2023-03-27T15:54:35.216Z,1.37
2023-03-27T16:04:39.032Z,2.22
2023-03-27T16:14:43.393Z,3.10
2023-03-27T16:24:46.926Z,3.75
2023-03-27T16:34:48.906Z,1.47
2023-03-27T16:44:50.912Z,5.67
2023-03-27T16:54:53.261Z,1.65
2023-03-27T17:04:54.812Z,1.80
2023-03-27T17:14:56.786Z,4.55
2023-03-27T17:25:00.335Z,2.20
2023-03-27T17:35:01.850Z,3.40
2023-03-27T17:45:06.352Z,3.03
2023-03-27T17:55:10.020Z,2.33
2023-03-27T18:05:11.545Z,5.40
2023-03-27T18:15:14.146Z,3.47
2023-03-27T18:25:15.781Z,6.13
2023-03-27T18:35:19.580Z,3.05
2023-03-27T18:45:21.087Z,1.93
2023-03-27T18:55:22.651Z,4.90
2023-03-27T19:05:24.115Z,4.10
2023-03-27T19:15:25.639Z,2.73
2023-03-27T19:25:27.335Z,3.40
2023-03-27T19:35:28.912Z,1.83
2023-03-27T19:45:30.442Z,1.83
2023-03-27T19:55:31.984Z,3.33
2023-03-27T20:05:33.486Z,2.30
2023-03-27T20:15:35.005Z,5.45
2023-03-27T20:25:36.534Z,4.27
2023-03-27T20:35:41.025Z,3.00
2023-03-27T20:45:43.589Z,3.70
2023-03-27T21:05:48.955Z,2.70
2023-03-27T21:15:50.411Z,2.80
2023-03-27T21:25:51.947Z,4.50
2023-03-27T21:35:53.495Z,3.43
2023-03-27T21:45:55.076Z,3.30
2023-03-27T21:55:57.938Z,3.45
2023-03-27T22:06:11.707Z,2.97
2023-03-27T22:16:16.547Z,3.13
2023-03-27T22:26:22.523Z,3.20
2023-03-27T22:36:24.020Z,3.30
2023-03-27T22:46:25.651Z,2.88
2023-03-27T22:56:27.164Z,4.73
2023-03-27T23:06:28.711Z,3.03
2023-03-27T23:16:30.249Z,2.50
2023-03-27T23:26:31.707Z,3.50
2023-03-27T23:36:33.250Z,2.65
2023-03-27T23:46:34.830Z,2.60
2023-03-27T23:56:36.506Z,3.70
